Grayling, MI (49738)

12:58 AM EDT on August 30, 2015 (GMT -0400)
MesoWest | | Change Station
CLOSE
Current Station
Personal Weather Station
Location: Grayling, MI
Elevation: 1291 ft
Nearby Weather Stations

Elev 1291 ft 44.61 °N, 84.71 °W | Updated 38 minutes ago

Fog
Fog
56 °F
Feels Like 56 °F
N
0
Wind Variable Wind from North
Gusts 1.0 mph

Today
High -- | Low -- °F
--% Chance of Precip.
Yesterday
High -- | Low -- °F
Precip. -- in
6:58 AM 8:19 PM
Full, 100% visible
Pressure 30.09 in
Visibility 0.2 miles
Clouds
Dew Point 55 °F
Humidity 96%
Rainfall in
Snow Depth Not available.
UV Not available.
Pollen 9.00 out of 12
Air Quality Not available.
Flu Activity Not available.
METAR KGOV 300457Z AUTO 00000KT 1/4SM FG VV002 13/11 A3009 RMK AO2 T01260112
Pressure 30.09 in
Visibility 0.2 miles
Clouds
Dew Point 55 °F
Humidity 96%
Rainfall in
Snow Depth Not available.
UV Not available.
Pollen 9.00 out of 12
Air Quality Not available.
Flu Activity Not available.
METAR KGOV 300457Z AUTO 00000KT 1/4SM FG VV002 13/11 A3009 RMK AO2 T01260112
Nowcast | as of 12:00 am EDT on August 30, 2015

At 1 am...mostly clear. Areas of fog. Temperature 60. Light winds. At 3 am...mostly clear. Areas of fog. Temperature 59. Light winds. At 5 am...partly cloudy. Areas of fog. Temperature 55. Light winds. At 7 am...partly cloudy. Areas of fog. Temperature 56. Light winds.

×

10-Day Weather Forecast

×

Almanac

Astronomy

Aug. 30, 2015 Rise Set
Actual Time
Civil Twilight
Nautical Twilight
Astronomical Twilight
Moon
Length of Visible Light
Length of Day
Tomorrow will be .
, % of the Moon is Illuminated

Today's Extremes

State Highs State Lows

Community

WunderPhotos

Upload Photos

1,850,887 photos uploaded!

WunderBlogs® & News

Nearby

Air Quality

  Air Quality AQ Index Pollutant
Not available.

Snow Depth

Station Depth Elevation

Earthquake Activity

City Distance Mag. Time & Date
Minimum magnitude displayed is 2.5.

Coastal Water Temperatures

Place Temperature

Stations

Nearby Weather Stations

Station Location Temp. Windchill Dew Point Humidity Wind Precip. Elev Updated Type